Observation data for Goodlett on 07/16/2019      Previous  Date  Next       Current Mesonet Observations  Soil Data  Daily Summary Page  Observations in Plain Language
KGDS 160500Z 16006KT 28/19 A2992 RMK A01 T02790187  RH  060%=      5-min Rain = 0
KGDS 160505Z 16006KT 28/19 A2992 RMK A01 T02760187  RH  061%=      5-min Rain = 0
KGDS 160510Z 16006KT 27/19 A2992 RMK A01 T02720187  RH  063%=      5-min Rain = 0
KGDS 160515Z 16006KT 27/19 A2992 RMK A01 T02690188  RH  064%=      5-min Rain = 0
KGDS 160520Z 16006KT 27/19 A2992 RMK A01 T02680188  RH  065%=      5-min Rain = 0
KGDS 160525Z 16006KT 27/19 A2992 RMK A01 T02670189  RH  065%=      5-min Rain = 0
KGDS 160530Z 16006KT 27/19 A2992 RMK A01 T02680189  RH  066%=      5-min Rain = 0
KGDS 160535Z 16006KT 27/19 A2992 RMK A01 T02670189  RH  066%=      5-min Rain = 0
KGDS 160540Z 16006KT 27/19 A2992 RMK A01 T02650189  RH  066%=      5-min Rain = 0
KGDS 160545Z 16006KT 27/19 A2992 RMK A01 T02660189  RH  066%=      5-min Rain = 0
KGDS 160550Z 16006KT 27/19 A2992 RMK A01 T02690190  RH  065%=      5-min Rain = 0
KGDS 160555Z 16006KT 27/19 A2992 RMK A01 T02680190  RH  066%=      5-min Rain = 0
KGDS 160600Z 17006KT 27/19 A2992 RMK A01 T02670190  RH  066%=      5-min Rain = 0
KGDS 160605Z 17005KT 27/19 A2991 RMK A01 T02670190  RH  066%=      5-min Rain = 0
KGDS 160610Z 17006KT 27/19 A2991 RMK A01 T02660191  RH  067%=      5-min Rain = 0
KGDS 160615Z 17005KT 27/19 A2991 RMK A01 T02650190  RH  067%=      5-min Rain = 0
KGDS 160620Z 17005KT 26/19 A2991 RMK A01 T02640190  RH  068%=      5-min Rain = 0
KGDS 160625Z 17005KT 26/19 A2991 RMK A01 T02620190  RH  068%=      5-min Rain = 0
KGDS 160630Z 17005KT 26/19 A2991 RMK A01 T02620191  RH  068%=      5-min Rain = 0
KGDS 160635Z 17005KT 26/19 A2991 RMK A01 T02630191  RH  068%=      5-min Rain = 0
KGDS 160640Z 18005KT 26/19 A2991 RMK A01 T02630191  RH  068%=      5-min Rain = 0
KGDS 160645Z 18004KT 26/19 A2991 RMK A01 T02630190  RH  068%=      5-min Rain = 0
KGDS 160650Z 18004KT 26/19 A2991 RMK A01 T02630190  RH  068%=      5-min Rain = 0
KGDS 160655Z 17004KT 26/19 A2991 RMK A01 T02630190  RH  068%=      5-min Rain = 0
KGDS 160700Z 17005KT 26/19 A2991 RMK A01 T02620190  RH  068%=      5-min Rain = 0
KGDS 160705Z 17005KT 26/19 A2991 RMK A01 T02610190  RH  069%=      5-min Rain = 0
KGDS 160710Z 17004KT 26/19 A2991 RMK A01 T02600190  RH  069%=      5-min Rain = 0
KGDS 160715Z 17004KT 26/19 A2991 RMK A01 T02600190  RH  069%=      5-min Rain = 0
KGDS 160720Z 17005KT 26/19 A2991 RMK A01 T02590190  RH  070%=      5-min Rain = 0
KGDS 160725Z 17005KT 26/19 A299 RMK A01 T02580190  RH  070%=      5-min Rain = 0
KGDS 160730Z 17006KT 26/19 A299 RMK A01 T02580190  RH  070%=      5-min Rain = 0
KGDS 160735Z 17006KT 26/19 A299 RMK A01 T02570190  RH  070%=      5-min Rain = 0
KGDS 160740Z 17006KT 26/19 A299 RMK A01 T02570189  RH  070%=      5-min Rain = 0
KGDS 160745Z 17005KT 26/19 A299 RMK A01 T02560189  RH  070%=      5-min Rain = 0
KGDS 160750Z 17006KT 26/19 A299 RMK A01 T02550188  RH  070%=      5-min Rain = 0
KGDS 160755Z 18005KT 26/19 A299 RMK A01 T02550188  RH  070%=      5-min Rain = 0
KGDS 160800Z 19005KT 26/19 A299 RMK A01 T02550188  RH  070%=      5-min Rain = 0
KGDS 160805Z 19004KT 25/19 A299 RMK A01 T02540187  RH  070%=      5-min Rain = 0
KGDS 160810Z 19005KT 25/19 A299 RMK A01 T02540187  RH  070%=      5-min Rain = 0
KGDS 160815Z 19005KT 25/19 A299 RMK A01 T02540187  RH  070%=      5-min Rain = 0
KGDS 160820Z 19005KT 25/19 A299 RMK A01 T02510186  RH  071%=      5-min Rain = 0
KGDS 160825Z 19005KT 25/19 A299 RMK A01 T02480187  RH  072%=      5-min Rain = 0
KGDS 160830Z 20005KT 25/19 A299 RMK A01 T02480188  RH  073%=      5-min Rain = 0
KGDS 160835Z 19005KT 25/19 A299 RMK A01 T02480188  RH  073%=      5-min Rain = 0
KGDS 160840Z 18005KT 25/19 A299 RMK A01 T02480188  RH  073%=      5-min Rain = 0
KGDS 160845Z 18005KT 25/19 A299 RMK A01 T02480188  RH  073%=      5-min Rain = 0
KGDS 160850Z 18006KT 25/19 A299 RMK A01 T02460187  RH  074%=      5-min Rain = 0
KGDS 160855Z 17005KT 24/19 A2989 RMK A01 T02430187  RH  075%=      5-min Rain = 0
KGDS 160900Z 17005KT 24/19 A2989 RMK A01 T02420187  RH  075%=      5-min Rain = 0
KGDS 160905Z 17006KT 24/19 A2989 RMK A01 T02420187  RH  075%=      5-min Rain = 0
KGDS 160910Z 17005KT 24/19 A2989 RMK A01 T02420188  RH  076%=      5-min Rain = 0
KGDS 160915Z 17005KT 24/19 A2989 RMK A01 T02430188  RH  075%=      5-min Rain = 0
KGDS 160920Z 17005KT 25/19 A2989 RMK A01 T02450188  RH  075%=      5-min Rain = 0
KGDS 160925Z 19004KT 25/19 A2989 RMK A01 T02460187  RH  073%=      5-min Rain = 0
KGDS 160930Z 19004KT 24/19 A2989 RMK A01 T02430185  RH  074%=      5-min Rain = 0
KGDS 160935Z 19004KT 24/19 A2989 RMK A01 T02410186  RH  075%=      5-min Rain = 0
KGDS 160940Z 18004KT 24/19 A2989 RMK A01 T02430186  RH  075%=      5-min Rain = 0
KGDS 160945Z 18004KT 24/19 A2989 RMK A01 T02440186  RH  074%=      5-min Rain = 0
KGDS 160950Z 18005KT 24/19 A2989 RMK A01 T02440186  RH  074%=      5-min Rain = 0
KGDS 160955Z 18005KT 24/19 A2989 RMK A01 T02430186  RH  074%=      5-min Rain = 0
KGDS 161000Z 18005KT 24/19 A2989 RMK A01 T02430186  RH  074%=      5-min Rain = 0
KGDS 161005Z 18005KT 24/19 A299 RMK A01 T02430186  RH  074%=      5-min Rain = 0
KGDS 161010Z 17005KT 24/19 A299 RMK A01 T02420186  RH  075%=      5-min Rain = 0
KGDS 161015Z 17006KT 24/19 A299 RMK A01 T02410186  RH  075%=      5-min Rain = 0
KGDS 161020Z 18006KT 24/19 A299 RMK A01 T02400186  RH  076%=      5-min Rain = 0
KGDS 161025Z 18005KT 24/19 A299 RMK A01 T02420186  RH  075%=      5-min Rain = 0
KGDS 161030Z 18005KT 24/19 A299 RMK A01 T02410185  RH  075%=      5-min Rain = 0
KGDS 161035Z 18005KT 24/19 A299 RMK A01 T02390185  RH  076%=      5-min Rain = 0
KGDS 161040Z 18006KT 24/19 A299 RMK A01 T02390185  RH  076%=      5-min Rain = 0
KGDS 161045Z 18007KT 24/19 A299 RMK A01 T02390185  RH  076%=      5-min Rain = 0
KGDS 161050Z 18006KT 24/19 A299 RMK A01 T02410185  RH  075%=      5-min Rain = 0
KGDS 161055Z 18006KT 24/19 A299 RMK A01 T02400185  RH  075%=      5-min Rain = 0
KGDS 161100Z 18005KT 24/18 A299 RMK A01 T02390184  RH  075%=      5-min Rain = 0
KGDS 161105Z 18005KT 24/18 A2991 RMK A01 T02390184  RH  076%=      5-min Rain = 0
KGDS 161110Z 18006KT 24/18 A2991 RMK A01 T02370184  RH  076%=      5-min Rain = 0
KGDS 161115Z 18006KT 24/18 A2991 RMK A01 T02370184  RH  076%=      5-min Rain = 0
KGDS 161120Z 18006KT 24/18 A2991 RMK A01 T02370184  RH  076%=      5-min Rain = 0
KGDS 161125Z 18006KT 24/18 A2991 RMK A01 T02360184  RH  076%=      5-min Rain = 0
KGDS 161130Z 18006KT 24/18 A2991 RMK A01 T02360184  RH  077%=      5-min Rain = 0
KGDS 161135Z 18006KT 24/18 A2991 RMK A01 T02360184  RH  077%=      5-min Rain = 0
KGDS 161140Z 18006KT 24/18 A2991 RMK A01 T02350184  RH  077%=      5-min Rain = 0
KGDS 161145Z 18005KT 23/18 A2992 RMK A01 T02330184  RH  078%=      5-min Rain = 0
KGDS 161150Z 18005KT 23/18 A2992 RMK A01 T02330183  RH  078%=      5-min Rain = 0
KGDS 161155Z 18006KT 23/18 A2992 RMK A01 T02330184  RH  078%=      5-min Rain = 0
KGDS 161200Z 19005KT 24/18 A2992 RMK A01 T02350183  RH  077%=      5-min Rain = 0
KGDS 161205Z 19004KT 24/18 A2992 RMK A01 T02350183  RH  077%=      5-min Rain = 0
KGDS 161210Z 18004KT 24/18 A2992 RMK A01 T02360184  RH  077%=      5-min Rain = 0
KGDS 161215Z 18004KT 24/19 A2992 RMK A01 T02370185  RH  076%=      5-min Rain = 0
KGDS 161220Z 18004KT 24/19 A2992 RMK A01 T02390185  RH  076%=      5-min Rain = 0
KGDS 161225Z 18004KT 24/19 A2992 RMK A01 T02410186  RH  075%=      5-min Rain = 0
KGDS 161230Z 18003KT 24/19 A2992 RMK A01 T02440186  RH  074%=      5-min Rain = 0
KGDS 161235Z 18005KT 25/19 A2992 RMK A01 T02470187  RH  073%=      5-min Rain = 0
KGDS 161240Z 18004KT 25/19 A2993 RMK A01 T02490187  RH  072%=      5-min Rain = 0
KGDS 161245Z 18004KT 25/19 A2993 RMK A01 T02520188  RH  071%=      5-min Rain = 0
KGDS 161250Z 18005KT 25/19 A2993 RMK A01 T02540188  RH  071%=      5-min Rain = 0
KGDS 161255Z 18005KT 26/19 A2993 RMK A01 T02560188  RH  070%=      5-min Rain = 0
KGDS 161300Z 17005KT 26/19 A2993 RMK A01 T02590189  RH  069%=      5-min Rain = 0
KGDS 161305Z 17006KT 26/19 A2993 RMK A01 T02600189  RH  069%=      5-min Rain = 0
KGDS 161310Z 17005KT 26/19 A2993 RMK A01 T02620189  RH  068%=      5-min Rain = 0
KGDS 161315Z 17005KT 26/19 A2993 RMK A01 T02630189  RH  067%=      5-min Rain = 0
KGDS 161320Z 17006KT 27/19 A2993 RMK A01 T02650190  RH  067%=      5-min Rain = 0
KGDS 161325Z 17006KT 27/19 A2994 RMK A01 T02680191  RH  066%=      5-min Rain = 0
KGDS 161330Z 18005KT 27/19 A2994 RMK A01 T02700191  RH  065%=      5-min Rain = 0
KGDS 161335Z 19006KT 27/19 A2994 RMK A01 T02730191  RH  064%=      5-min Rain = 0
KGDS 161340Z 20007KT 28/19 A2994 RMK A01 T02760190  RH  063%=      5-min Rain = 0
KGDS 161345Z 20007KT 28/19 A2994 RMK A01 T02790189  RH  061%=      5-min Rain = 0
KGDS 161350Z 21006KT 28/19 A2994 RMK A01 T02810189  RH  061%=      5-min Rain = 0
KGDS 161355Z 21006KT 29/19 A2994 RMK A01 T02850189  RH  059%=      5-min Rain = 0
KGDS 161400Z 20005KT 29/19 A2994 RMK A01 T02860190  RH  059%=      5-min Rain = 0
KGDS 161405Z 19006KT 29/19 A2994 RMK A01 T02890190  RH  058%=      5-min Rain = 0
KGDS 161410Z 21007KT 29/19 A2994 RMK A01 T02920187  RH  056%=      5-min Rain = 0
KGDS 161415Z 20007KT 30/19 A2994 RMK A01 T02950189  RH  056%=      5-min Rain = 0
KGDS 161420Z 20007KT 30/19 A2994 RMK A01 T02970189  RH  055%=      5-min Rain = 0
KGDS 161425Z 20008KT 30/19 A2994 RMK A01 T03030189  RH  053%=      5-min Rain = 0
KGDS 161430Z 20008KT 30/19 A2994 RMK A01 T03030188  RH  053%=      5-min Rain = 0
KGDS 161435Z 19008KT 31/19 A2994 RMK A01 T03100191  RH  052%=      5-min Rain = 0
KGDS 161440Z 21010KT 31/19 A2994 RMK A01 T03110187  RH  051%=      5-min Rain = 0
KGDS 161445Z 20012KT 31/19 A2994 RMK A01 T03110185  RH  050%=      5-min Rain = 0
KGDS 161450Z 21011G16KT 32/19 A2994 RMK A01 T03160186  RH  048%=      5-min Rain = 0
KGDS 161455Z 21012KT 32/19 A2994 RMK A01 T03180185  RH  048%=      5-min Rain = 0
KGDS 161500Z 21009KT 32/19 A2994 RMK A01 T03210186  RH  047%=      5-min Rain = 0
KGDS 161505Z 22010KT 32/19 A2994 RMK A01 T03230185  RH  046%=      5-min Rain = 0
KGDS 161510Z 22010G15KT 33/18 A2994 RMK A01 T03250183  RH  046%=      5-min Rain = 0
KGDS 161515Z 21009G14KT 33/19 A2994 RMK A01 T03290185  RH  045%=      5-min Rain = 0
KGDS 161520Z 21010G15KT 33/18 A2994 RMK A01 T03290184  RH  045%=      5-min Rain = 0
KGDS 161525Z 20010KT 33/18 A2994 RMK A01 T03290184  RH  044%=      5-min Rain = 0
KGDS 161530Z 20010G15KT 33/19 A2994 RMK A01 T03330185  RH  044%=      5-min Rain = 0
KGDS 161535Z 21010KT 33/18 A2994 RMK A01 T03330184  RH  044%=      5-min Rain = 0
KGDS 161540Z 21010KT 34/18 A2994 RMK A01 T03350184  RH  043%=      5-min Rain = 0
KGDS 161545Z 21011G16KT 34/18 A2994 RMK A01 T03390184  RH  042%=      5-min Rain = 0
KGDS 161550Z 21013KT 34/18 A2994 RMK A01 T03440181  RH  040%=      5-min Rain = 0
KGDS 161555Z 23012KT 34/18 A2995 RMK A01 T03440181  RH  040%=      5-min Rain = 0
KGDS 161600Z 23010KT 35/18 A2995 RMK A01 T03450182  RH  040%=      5-min Rain = 0
KGDS 161605Z 22010KT 35/18 A2995 RMK A01 T03500183  RH  040%=      5-min Rain = 0
KGDS 161610Z 20009G15KT 35/19 A2995 RMK A01 T03490185  RH  040%=      5-min Rain = 0
KGDS 161615Z 21011G16KT 35/18 A2995 RMK A01 T03520183  RH  039%=      5-min Rain = 0
KGDS 161620Z 22010KT 36/18 A2995 RMK A01 T03580183  RH  038%=      5-min Rain = 0
KGDS 161625Z 22010G15KT 35/18 A2995 RMK A01 T03530183  RH  039%=      5-min Rain = 0
KGDS 161630Z 21010KT 36/19 A2994 RMK A01 T03550185  RH  039%=      5-min Rain = 0
KGDS 161635Z 21011KT 36/19 A2994 RMK A01 T03580185  RH  038%=      5-min Rain = 0
KGDS 161640Z 20011KT 36/19 A2994 RMK A01 T03570185  RH  038%=      5-min Rain = 0
KGDS 161645Z 20008KT 36/19 A2994 RMK A01 T03610187  RH  038%=      5-min Rain = 0
KGDS 161650Z 22007KT 36/19 A2994 RMK A01 T03600186  RH  038%=      5-min Rain = 0
KGDS 161655Z 22007KT 36/19 A2994 RMK A01 T03620187  RH  038%=      5-min Rain = 0
KGDS 161700Z 19007KT 37/18 A2994 RMK A01 T03650184  RH  037%=      5-min Rain = 0
KGDS 161705Z 22008G13KT 37/18 A2994 RMK A01 T03690180  RH  035%=      5-min Rain = 0
KGDS 161710Z 19009G18KT 37/18 A2994 RMK A01 T03710179  RH  034%=      5-min Rain = 0
KGDS 161715Z 20011KT 37/18 A2994 RMK A01 T03740177  RH  033%=      5-min Rain = 0
KGDS 161720Z 20006G12KT 37/18 A2994 RMK A01 T03730176  RH  033%=      5-min Rain = 0
KGDS 161725Z 22011KT 38/17 A2994 RMK A01 T03750169  RH  031%=      5-min Rain = 0
KGDS 161730Z 22009KT 38/17 A2994 RMK A01 T03770167  RH  030%=      5-min Rain = 0
KGDS 161735Z 21009G15KT 38/17 A2994 RMK A01 T03810172  RH  031%=      5-min Rain = 0
KGDS 161740Z 22009KT 37/17 A2994 RMK A01 T03740165  RH  031%=      5-min Rain = 0
KGDS 161745Z 20011KT 38/17 A2994 RMK A01 T03770170  RH  031%=      5-min Rain = 0
KGDS 161750Z 15009G15KT 38/17 A2994 RMK A01 T03810169  RH  030%=      5-min Rain = 0
KGDS 161755Z 18011G18KT 38/17 A2994 RMK A01 T03790168  RH  030%=      5-min Rain = 0
KGDS 161800Z 18012G17KT 38/17 A2994 RMK A01 T03780166  RH  030%=      5-min Rain = 0
KGDS 161805Z 17010G18KT 38/16 A2994 RMK A01 T03830164  RH  029%=      5-min Rain = 0
KGDS 161810Z 16010G17KT 38/16 A2993 RMK A01 T03830164  RH  029%=      5-min Rain = 0
KGDS 161815Z 16012G20KT 39/16 A2993 RMK A01 T03860164  RH  029%=      5-min Rain = 0
KGDS 161820Z 17011G19KT 38/16 A2993 RMK A01 T03830162  RH  029%=      5-min Rain = 0
KGDS 161825Z 17012G26KT 39/16 A2993 RMK A01 T03880162  RH  028%=      5-min Rain = 0
KGDS 161830Z 18011G18KT 39/16 A2993 RMK A01 T03870158  RH  027%=      5-min Rain = 0
KGDS 161835Z 16011G16KT 39/16 A2993 RMK A01 T03890160  RH  027%=      5-min Rain = 0
KGDS 161840Z 17013G22KT 39/16 A2993 RMK A01 T03870159  RH  027%=      5-min Rain = 0
KGDS 161845Z 17013G19KT 39/16 A2993 RMK A01 T03880159  RH  027%=      5-min Rain = 0
KGDS 161850Z 19008G18KT 39/15 A2993 RMK A01 T03850152  RH  027%=      5-min Rain = 0
KGDS 161855Z 18009G15KT 39/16 A2993 RMK A01 T03880158  RH  027%=      5-min Rain = 0
KGDS 161900Z 20006G13KT 38/15 A2993 RMK A01 T03830152  RH  027%=      5-min Rain = 0
KGDS 161905Z 19010G17KT 39/16 A2992 RMK A01 T03900157  RH  027%=      5-min Rain = 0
KGDS 161910Z 18011G18KT 39/16 A2992 RMK A01 T03910162  RH  027%=      5-min Rain = 0
KGDS 161915Z 18012G20KT 39/16 A2992 RMK A01 T03900158  RH  027%=      5-min Rain = 0
KGDS 161920Z 18007G15KT 39/16 A2992 RMK A01 T03870160  RH  028%=      5-min Rain = 0
KGDS 161925Z 19014KT 39/16 A2991 RMK A01 T03920161  RH  027%=      5-min Rain = 0
KGDS 161930Z 18014KT 40/16 A2991 RMK A01 T03950155  RH  026%=      5-min Rain = 0
KGDS 161935Z 16012G17KT 39/15 A2991 RMK A01 T03920145  RH  024%=      5-min Rain = 0
KGDS 161940Z 15009G14KT 39/14 A2991 RMK A01 T03910141  RH  024%=      5-min Rain = 0
KGDS 161945Z 16009G16KT 39/15 A2991 RMK A01 T03860151  RH  026%=      5-min Rain = 0
KGDS 161950Z 18013G18KT 40/16 A2991 RMK A01 T03960156  RH  026%=      5-min Rain = 0
KGDS 161955Z 17012G21KT 40/16 A299 RMK A01 T03980157  RH  026%=      5-min Rain = 0
KGDS 162000Z 15012G17KT 40/16 A299 RMK A01 T03980156  RH  025%=      5-min Rain = 0
KGDS 162005Z 18012KT 39/15 A299 RMK A01 T03870149  RH  026%=      5-min Rain = 0
KGDS 162010Z 16014G21KT 39/15 A299 RMK A01 T03900153  RH  026%=      5-min Rain = 0
KGDS 162015Z 16015G20KT 39/15 A299 RMK A01 T03940150  RH  025%=      5-min Rain = 0
KGDS 162020Z 16009KT 39/15 A299 RMK A01 T03930150  RH  025%=      5-min Rain = 0
KGDS 162025Z 17010G15KT 39/16 A2989 RMK A01 T03940156  RH  026%=      5-min Rain = 0
KGDS 162030Z 20008KT 39/15 A2989 RMK A01 T03940153  RH  025%=      5-min Rain = 0
KGDS 162035Z 14012G17KT 40/15 A2989 RMK A01 T03960154  RH  025%=      5-min Rain = 0
KGDS 162040Z 18012G18KT 40/15 A2989 RMK A01 T04010151  RH  024%=      5-min Rain = 0
KGDS 162045Z 18013G19KT 40/15 A2989 RMK A01 T03960147  RH  024%=      5-min Rain = 0
KGDS 162050Z 16012G18KT 40/15 A2989 RMK A01 T03960152  RH  025%=      5-min Rain = 0
KGDS 162055Z 18011G16KT 40/15 A2988 RMK A01 T03960149  RH  025%=      5-min Rain = 0
KGDS 162100Z 17008G17KT 40/15 A2988 RMK A01 T03960148  RH  024%=      5-min Rain = 0
KGDS 162105Z 14013G18KT 40/15 A2988 RMK A01 T03970145  RH  024%=      5-min Rain = 0
KGDS 162110Z 16013G18KT 40/14 A2988 RMK A01 T03990143  RH  023%=      5-min Rain = 0
KGDS 162115Z 16015KT 40/15 A2988 RMK A01 T04000149  RH  024%=      5-min Rain = 0
KGDS 162120Z 18011KT 40/15 A2987 RMK A01 T04010154  RH  025%=      5-min Rain = 0
KGDS 162125Z 16010G20KT 40/15 A2987 RMK A01 T03950150  RH  025%=      5-min Rain = 0
KGDS 162130Z 18011G18KT 39/15 A2987 RMK A01 T03900146  RH  025%=      5-min Rain = 0
KGDS 162135Z 16014G20KT 39/14 A2987 RMK A01 T03860144  RH  025%=      5-min Rain = 0
KGDS 162140Z 17014G20KT 39/14 A2987 RMK A01 T03930141  RH  024%=      5-min Rain = 0
KGDS 162145Z 17014G20KT 40/15 A2987 RMK A01 T03970146  RH  024%=      5-min Rain = 0
KGDS 162150Z 18013G20KT 40/15 A2987 RMK A01 T03970145  RH  024%=      5-min Rain = 0
KGDS 162155Z 16014G21KT 40/14 A2987 RMK A01 T03970144  RH  024%=      5-min Rain = 0
KGDS 162200Z 16016G21KT 40/14 A2986 RMK A01 T03970142  RH  023%=      5-min Rain = 0
KGDS 162205Z 16015G23KT 39/15 A2986 RMK A01 T03940147  RH  024%=      5-min Rain = 0
KGDS 162210Z 17017G23KT 40/15 A2986 RMK A01 T03950146  RH  024%=      5-min Rain = 0
KGDS 162215Z 18012G18KT 39/14 A2986 RMK A01 T03940144  RH  024%=      5-min Rain = 0
KGDS 162220Z 17012G19KT 40/15 A2986 RMK A01 T03950145  RH  024%=      5-min Rain = 0
KGDS 162225Z 17015KT 40/15 A2986 RMK A01 T03960145  RH  024%=      5-min Rain = 0
KGDS 162230Z 17011G20KT 40/14 A2986 RMK A01 T03950143  RH  024%=      5-min Rain = 0
KGDS 162235Z 18016G21KT 39/14 A2986 RMK A01 T03940142  RH  024%=      5-min Rain = 0
KGDS 162240Z 20013G19KT 39/14 A2986 RMK A01 T03930139  RH  023%=      5-min Rain = 0
KGDS 162245Z 17016G32KT 40/14 A2986 RMK A01 T03960142  RH  023%=      5-min Rain = 0
KGDS 162250Z 16015KT 39/14 A2986 RMK A01 T03940140  RH  023%=      5-min Rain = 0
KGDS 162255Z 16015KT 39/14 A2986 RMK A01 T03930142  RH  024%=      5-min Rain = 0
KGDS 162300Z 14012KT 39/14 A2986 RMK A01 T03900140  RH  024%=      5-min Rain = 0
KGDS 162305Z 15010G17KT 39/15 A2986 RMK A01 T03910145  RH  024%=      5-min Rain = 0
KGDS 162310Z 15014G19KT 40/15 A2986 RMK A01 T03950151  RH  025%=      5-min Rain = 0
KGDS 162315Z 17013G20KT 39/15 A2986 RMK A01 T03920150  RH  025%=      5-min Rain = 0
KGDS 162320Z 19013KT 39/14 A2986 RMK A01 T03910143  RH  024%=      5-min Rain = 0
KGDS 162325Z 16016KT 39/15 A2986 RMK A01 T03910149  RH  025%=      5-min Rain = 0
KGDS 162330Z 17011G16KT 39/15 A2987 RMK A01 T03890150  RH  026%=      5-min Rain = 0
KGDS 162335Z 16013G20KT 39/15 A2987 RMK A01 T03900151  RH  026%=      5-min Rain = 0
KGDS 162340Z 16015KT 39/15 A2986 RMK A01 T03850149  RH  026%=      5-min Rain = 0
KGDS 162345Z 16014G20KT 39/15 A2986 RMK A01 T03870148  RH  026%=      5-min Rain = 0
KGDS 162350Z 16014KT 39/15 A2986 RMK A01 T03860145  RH  025%=      5-min Rain = 0
KGDS 162355Z 15013G19KT 38/15 A2986 RMK A01 T03840147  RH  026%=      5-min Rain = 0
KGDS 170000Z 15017G23KT 38/15 A2986 RMK A01 T03830149  RH  026%=      5-min Rain = 0
KGDS 170005Z 16017G22KT 38/15 A2986 RMK A01 T03810148  RH  026%=      5-min Rain = 0
KGDS 170010Z 15017G24KT 38/15 A2986 RMK A01 T03790148  RH  027%=      5-min Rain = 0
KGDS 170015Z 15018G23KT 38/15 A2986 RMK A01 T03790147  RH  026%=      5-min Rain = 0
KGDS 170020Z 15018G24KT 38/15 A2986 RMK A01 T03770146  RH  027%=      5-min Rain = 0
KGDS 170025Z 16015G20KT 38/15 A2986 RMK A01 T03760146  RH  027%=      5-min Rain = 0
KGDS 170030Z 16014G19KT 38/15 A2987 RMK A01 T03760146  RH  027%=      5-min Rain = 0
KGDS 170035Z 16014KT 37/15 A2987 RMK A01 T03740145  RH  027%=      5-min Rain = 0
KGDS 170040Z 16016KT 37/15 A2987 RMK A01 T03730145  RH  027%=      5-min Rain = 0
KGDS 170045Z 16015G20KT 37/14 A2987 RMK A01 T03710144  RH  027%=      5-min Rain = 0
KGDS 170050Z 15014G20KT 37/15 A2987 RMK A01 T03710145  RH  027%=      5-min Rain = 0
KGDS 170055Z 15013G18KT 37/14 A2987 RMK A01 T03690144  RH  027%=      5-min Rain = 0
KGDS 170100Z 15012G17KT 37/15 A2987 RMK A01 T03680146  RH  028%=      5-min Rain = 0
KGDS 170105Z 15012KT 37/15 A2987 RMK A01 T03660146  RH  028%=      5-min Rain = 0
KGDS 170110Z 15012G18KT 36/15 A2987 RMK A01 T03630146  RH  029%=      5-min Rain = 0
KGDS 170115Z 15015KT 36/15 A2987 RMK A01 T03600151  RH  030%=      5-min Rain = 0
KGDS 170120Z 15015G20KT 36/16 A2988 RMK A01 T03550163  RH  034%=      5-min Rain = 0
KGDS 170125Z 15014G19KT 35/17 A2988 RMK A01 T03520167  RH  035%=      5-min Rain = 0
KGDS 170130Z 14015G20KT 35/17 A2988 RMK A01 T03510168  RH  035%=      5-min Rain = 0
KGDS 170135Z 15013G18KT 35/17 A2988 RMK A01 T03490169  RH  036%=      5-min Rain = 0
KGDS 170140Z 15011KT 35/17 A2988 RMK A01 T03460169  RH  037%=      5-min Rain = 0
KGDS 170145Z 15012KT 35/17 A2988 RMK A01 T03450170  RH  037%=      5-min Rain = 0
KGDS 170150Z 15011KT 34/17 A2988 RMK A01 T03430171  RH  038%=      5-min Rain = 0
KGDS 170155Z 15011KT 34/17 A2989 RMK A01 T03410172  RH  039%=      5-min Rain = 0
KGDS 170200Z 15012KT 34/17 A2989 RMK A01 T03400173  RH  039%=      5-min Rain = 0
KGDS 170205Z 14011KT 34/17 A2989 RMK A01 T03380174  RH  040%=      5-min Rain = 0
KGDS 170210Z 14011KT 34/18 A2989 RMK A01 T03360175  RH  040%=      5-min Rain = 0
KGDS 170215Z 14011KT 33/18 A2989 RMK A01 T03340176  RH  041%=      5-min Rain = 0
KGDS 170220Z 15011KT 33/18 A2989 RMK A01 T03330177  RH  042%=      5-min Rain = 0
KGDS 170225Z 15011KT 33/18 A2989 RMK A01 T03320177  RH  042%=      5-min Rain = 0
KGDS 170230Z 15012KT 33/18 A299 RMK A01 T03310178  RH  042%=      5-min Rain = 0
KGDS 170235Z 14010KT 33/18 A299 RMK A01 T03300179  RH  043%=      5-min Rain = 0
KGDS 170240Z 14009KT 33/18 A299 RMK A01 T03260179  RH  044%=      5-min Rain = 0
KGDS 170245Z 14009KT 32/18 A299 RMK A01 T03240179  RH  044%=      5-min Rain = 0
KGDS 170250Z 14010KT 32/18 A2991 RMK A01 T03230179  RH  045%=      5-min Rain = 0
KGDS 170255Z 14009KT 32/18 A2991 RMK A01 T03220180  RH  045%=      5-min Rain = 0
KGDS 170300Z 15009KT 32/18 A2991 RMK A01 T03200179  RH  045%=      5-min Rain = 0
KGDS 170305Z 15009KT 32/18 A2991 RMK A01 T03190179  RH  046%=      5-min Rain = 0
KGDS 170310Z 15009KT 32/18 A2992 RMK A01 T03180179  RH  046%=      5-min Rain = 0
KGDS 170315Z 15009KT 32/18 A2992 RMK A01 T03160179  RH  046%=      5-min Rain = 0
KGDS 170320Z 15009KT 32/18 A2992 RMK A01 T03150179  RH  047%=      5-min Rain = 0
KGDS 170325Z 15009KT 31/18 A2992 RMK A01 T03140179  RH  047%=      5-min Rain = 0
KGDS 170330Z 15009KT 31/18 A2992 RMK A01 T03140179  RH  047%=      5-min Rain = 0
KGDS 170335Z 15008KT 31/18 A2993 RMK A01 T03120179  RH  048%=      5-min Rain = 0
KGDS 170340Z 14009KT 31/18 A2993 RMK A01 T03100179  RH  048%=      5-min Rain = 0
KGDS 170345Z 15010KT 31/18 A2993 RMK A01 T03100179  RH  048%=      5-min Rain = 0
KGDS 170350Z 15009KT 31/18 A2993 RMK A01 T03090179  RH  048%=      5-min Rain = 0
KGDS 170355Z 15009KT 31/18 A2993 RMK A01 T03080179  RH  048%=      5-min Rain = 0
KGDS 170400Z 15009KT 31/18 A2993 RMK A01 T03080179  RH  049%=      5-min Rain = 0
KGDS 170405Z 15008KT 31/18 A2994 RMK A01 T03070179  RH  049%=      5-min Rain = 0
KGDS 170410Z 15009KT 31/18 A2994 RMK A01 T03060179  RH  049%=      5-min Rain = 0
KGDS 170415Z 15009KT 31/18 A2994 RMK A01 T03050179  RH  050%=      5-min Rain = 0
KGDS 170420Z 15009KT 30/18 A2994 RMK A01 T03040180  RH  050%=      5-min Rain = 0
KGDS 170425Z 15009KT 30/18 A2994 RMK A01 T03030180  RH  050%=      5-min Rain = 0
KGDS 170430Z 16009KT 30/18 A2994 RMK A01 T03020180  RH  051%=      5-min Rain = 0
KGDS 170435Z 16009KT 30/18 A2993 RMK A01 T03010181  RH  051%=      5-min Rain = 0
KGDS 170440Z 15009KT 30/18 A2993 RMK A01 T03000181  RH  051%=      5-min Rain = 0
KGDS 170445Z 15009KT 30/18 A2993 RMK A01 T02990181  RH  052%=      5-min Rain = 0
KGDS 170450Z 15009KT 30/18 A2993 RMK A01 T02980181  RH  052%=      5-min Rain = 0
KGDS 170455Z 15008KT 30/18 A2993 RMK A01 T02970182  RH  053%=      5-min Rain = 0

Page generated in 0.035 seconds.